Time;durP1;ratioP1;P1;durP2;ratioP2;P2;SDS_P1;SDS_P2;PMS_P1;PMS_P2;Temp;Humidity;BMP_temperature;BMP_pressure;BME280_temperature;BME280_humidity;BME280_pressure;Samples;Min_cycle;Max_cycle;Signal;HPM_P1;HPM_P2
2024/03/07 00:01:58;;;;;;;;;19.00;19.00;;;;;9.90;91.23;101494.03;6201461;22;46446;-87
2024/03/07 00:04:24;;;;;;;;;23.00;21.00;;;;;9.87;91.40;101480.66;6227780;22;45334;-87
2024/03/07 00:06:50;;;;;;;;;23.67;22.00;;;;;10.11;91.35;101542.47;6202476;22;44724;-87
2024/03/07 00:09:16;;;;;;;;;28.33;22.33;;;;;10.11;91.27;101528.28;6200806;22;45554;-87
2024/03/07 00:11:44;;;;;;;;;23.67;22.33;;;;;9.89;91.37;101479.81;6229183;22;45336;-87
2024/03/07 00:14:10;;;;;;;;;22.67;21.33;;;;;9.92;91.14;101493.22;6202173;22;44901;-87
2024/03/07 00:16:36;;;;;;;;;19.33;18.33;;;;;9.83;91.48;101482.31;6203476;22;44885;-87
2024/03/07 00:19:01;;;;;;;;;21.33;19.67;;;;;9.97;91.36;101518.13;6204828;22;44893;-88
2024/03/07 00:21:27;;;;;;;;;23.67;21.33;;;;;9.82;91.67;101467.25;6204025;22;47185;-88
2024/03/07 00:23:53;;;;;;;;;15.67;15.00;;;;;9.79;91.75;101472.44;6231134;22;44767;-87
2024/03/07 00:26:19;;;;;;;;;22.33;22.33;;;;;10.02;91.66;101511.22;6230125;22;44827;-87
2024/03/07 00:28:44;;;;;;;;;19.33;17.67;;;;;9.86;92.29;101478.84;6202481;22;45302;-88
2024/03/07 00:31:10;;;;;;;;;21.00;16.67;;;;;10.05;91.84;101509.50;6228924;22;45248;-87
2024/03/07 00:33:36;;;;;;;;;22.67;20.33;;;;;9.99;91.77;101504.91;6201569;22;45210;-87
2024/03/07 00:36:02;;;;;;;;;22.33;22.33;;;;;10.01;91.71;101512.06;6227984;22;44797;-87
2024/03/07 00:38:27;;;;;;;;;26.00;22.67;;;;;9.75;91.58;101470.56;6202557;22;45169;-87
2024/03/07 00:40:53;;;;;;;;;24.00;16.33;;;;;9.73;91.75;101465.19;6201615;22;47168;-87
2024/03/07 00:43:20;;;;;;;;;21.33;19.00;;;;;9.99;92.04;101507.56;6200821;22;45130;-87
2024/03/07 00:45:49;;;;;;;;;24.33;22.00;;;;;9.95;92.23;101492.38;6228823;22;45276;-87
2024/03/07 00:48:15;;;;;;;;;19.33;18.00;;;;;9.81;92.21;101481.34;6200872;22;45078;-87
2024/03/07 00:50:42;;;;;;;;;18.00;18.00;;;;;9.79;92.01;101483.97;6228560;22;45339;-87
2024/03/07 00:53:08;;;;;;;;;17.00;17.00;;;;;9.96;92.22;101503.06;6201409;22;45064;-87
2024/03/07 00:55:33;;;;;;;;;17.00;17.00;;;;;9.94;92.35;101514.53;6229055;22;44793;-87
2024/03/07 00:57:59;;;;;;;;;23.67;21.67;;;;;9.94;92.46;101511.88;6203736;22;45184;-88
2024/03/07 01:00:24;;;;;;;;;22.00;21.33;;;;;9.93;93.05;101515.34;6203256;22;46890;-87
2024/03/07 01:02:52;;;;;;;;;23.00;22.00;;;;;9.76;92.93;101480.34;6203254;22;45625;-87
2024/03/07 01:05:19;;;;;;;;;29.67;26.67;;;;;9.67;93.23;101467.66;6200980;22;44785;-87
2024/03/07 01:07:47;;;;;;;;;24.00;20.33;;;;;9.59;93.07;101461.22;6229371;22;45188;-86
2024/03/07 01:10:14;;;;;;;;;31.33;28.00;;;;;9.84;93.65;101500.06;6199947;22;47226;-87
2024/03/07 01:12:39;;;;;;;;;27.00;24.67;;;;;9.85;93.26;101503.59;6227940;22;45637;-87
2024/03/07 01:15:05;;;;;;;;;26.33;24.67;;;;;9.79;94.00;101497.25;6201486;22;44887;-87
2024/03/07 01:17:34;;;;;;;;;26.33;25.33;;;;;9.74;94.21;101461.69;6229030;22;44920;-87
2024/03/07 01:19:59;;;;;;;;;32.33;27.33;;;;;9.78;93.69;101487.50;6199629;22;47139;-86
2024/03/07 01:22:24;;;;;;;;;28.33;24.67;;;;;9.56;93.67;101447.88;6199613;22;45270;-87
2024/03/07 01:24:53;;;;;;;;;25.33;22.33;;;;;9.56;93.69;101455.84;6228135;22;44776;-86
2024/03/07 01:27:19;;;;;;;;;28.00;26.33;;;;;9.69;93.94;101478.34;6202599;22;44980;-86
2024/03/07 01:29:44;;;;;;;;;28.67;25.00;;;;;9.61;93.78;101443.59;6225414;22;47199;-86
2024/03/07 01:32:10;;;;;;;;;26.00;22.67;;;;;9.58;94.08;101432.91;6227548;22;44814;-86
2024/03/07 01:34:36;;;;;;;;;26.67;26.67;;;;;9.79;94.10;101470.69;6200454;22;45033;-87
2024/03/07 01:37:01;;;;;;;;;31.67;27.33;;;;;9.81;93.98;101474.28;6228270;22;44870;-87
2024/03/07 01:39:27;;;;;;;;;27.67;24.67;;;;;9.58;93.65;101427.59;6228596;22;45387;-87
2024/03/07 01:41:52;;;;;;;;;29.00;27.33;;;;;9.77;93.82;101472.41;6199304;22;45379;-87
2024/03/07 01:44:18;;;;;;;;;33.33;33.33;;;;;9.72;94.29;101454.53;6199144;22;44797;-87
2024/03/07 01:46:43;;;;;;;;;30.67;28.33;;;;;9.77;94.48;101467.09;6201244;22;45237;-87
2024/03/07 01:49:12;;;;;;;;;32.33;28.33;;;;;9.58;94.24;101433.78;6200628;22;47385;-87
2024/03/07 01:51:38;;;;;;;;;29.67;28.67;;;;;9.55;94.16;101430.13;6225651;22;45254;-87
2024/03/07 01:58:08;;;;;;;;;29.33;27.33;;;;;9.83;94.45;101434.47;6197516;23;45468;-87
2024/03/07 02:00:34;;;;;;;;;22.67;20.33;;;;;9.65;94.18;101418.03;6169485;23;47579;-86
2024/03/07 02:02:59;;;;;;;;;28.33;27.33;;;;;9.68;94.02;101423.44;6169554;23;45257;-87
2024/03/07 02:05:25;;;;;;;;;28.00;25.00;;;;;9.56;94.51;101408.94;6170289;23;45124;-87
2024/03/07 02:07:51;;;;;;;;;30.33;27.67;;;;;9.65;93.77;101408.28;6170831;22;45594;-87
2024/03/07 02:10:17;;;;;;;;;32.33;27.00;;;;;9.60;93.98;101416.16;6172274;22;47059;-87
2024/03/07 02:12:43;;;;;;;;;26.67;25.33;;;;;9.62;93.64;101429.47;6172103;23;44888;-87
2024/03/07 02:15:09;;;;;;;;;27.00;23.67;;;;;9.44;94.13;101399.72;6172248;22;44777;-86
2024/03/07 02:17:35;;;;;;;;;22.00;18.67;;;;;9.66;93.77;101419.84;6199633;23;44738;-87
2024/03/07 02:20:01;;;;;;;;;26.33;22.33;;;;;9.48;93.36;101388.34;6171446;22;47026;-86
2024/03/07 02:22:26;;;;;;;;;23.67;22.33;;;;;9.50;93.12;101389.28;6172375;23;44866;-86
2024/03/07 02:24:53;;;;;;;;;28.00;25.00;;;;;9.58;92.78;101406.34;6197607;22;44809;-88
2024/03/07 02:27:19;;;;;;;;;29.67;26.67;;;;;9.66;93.14;101398.59;6197628;22;44753;-87
2024/03/07 02:29:46;;;;;;;;;28.00;26.00;;;;;9.39;92.75;101381.91;6171751;22;46974;-87
2024/03/07 02:32:12;;;;;;;;;28.00;22.33;;;;;9.35;93.12;101373.78;6195317;23;44851;-88
2024/03/07 02:34:37;;;;;;;;;23.00;23.00;;;;;9.36;92.98;101372.97;6172787;22;45136;-87
2024/03/07 02:37:03;;;;;;;;;22.67;22.33;;;;;9.48;92.94;101405.16;6173646;22;45247;-88
2024/03/07 02:39:28;;;;;;;;;27.67;25.67;;;;;9.44;92.99;101402.38;6171082;23;46937;-87
2024/03/07 02:41:54;;;;;;;;;24.67;24.00;;;;;9.32;92.84;101377.25;6173774;22;44765;-88
2024/03/07 02:44:20;;;;;;;;;26.67;25.33;;;;;9.28;92.88;101379.78;6172118;23;45480;-87
2024/03/07 02:46:46;;;;;;;;;30.00;26.00;;;;;9.21;92.93;101362.81;6173172;22;44923;-88
2024/03/07 02:49:12;;;;;;;;;28.00;28.00;;;;;9.17;92.89;101367.13;6172984;22;46830;-87
2024/03/07 02:51:38;;;;;;;;;27.00;27.00;;;;;9.34;93.27;101395.91;6171364;22;44879;-88
2024/03/07 02:54:05;;;;;;;;;31.33;27.33;;;;;9.27;93.17;101373.59;6197065;23;45102;-88
2024/03/07 02:56:31;;;;;;;;;29.33;28.00;;;;;9.26;93.03;101374.44;6213342;22;44853;-87
2024/03/07 02:59:02;;;;;;;;;31.67;28.67;;;;;9.23;93.00;101371.72;6202461;22;47260;-88
2024/03/07 03:01:28;;;;;;;;;31.33;28.33;;;;;9.25;92.82;101369.06;6202561;22;44989;-88
2024/03/07 03:03:53;;;;;;;;;29.33;29.33;;;;;9.12;92.46;101359.84;6202336;22;45073;-88
2024/03/07 03:06:20;;;;;;;;;37.00;32.00;;;;;9.00;92.70;101355.97;6202996;22;45221;-87
2024/03/07 03:08:46;;;;;;;;;34.67;30.00;;;;;9.15;92.92;101381.16;6201431;22;46950;-87
2024/03/07 03:11:13;;;;;;;;;31.33;27.00;;;;;9.06;93.11;101376.50;6201512;22;45122;-87
2024/03/07 03:13:40;;;;;;;;;29.33;28.00;;;;;8.85;93.17;101342.25;6230818;22;44696;-87
2024/03/07 03:16:07;;;;;;;;;24.67;24.67;;;;;8.85;93.26;101349.28;6232892;22;44819;-87
2024/03/07 03:18:33;;;;;;;;;23.67;23.00;;;;;9.00;93.55;101374.53;6203783;22;47358;-87
2024/03/07 03:20:59;;;;;;;;;30.00;28.33;;;;;8.83;93.16;101343.97;6175815;22;44755;-87
2024/03/07 03:23:25;;;;;;;;;32.67;31.67;;;;;8.89;93.13;101360.06;6202139;22;44879;-87
2024/03/07 03:25:50;;;;;;;;;27.33;26.00;;;;;8.93;93.25;101367.25;6202322;22;45376;-87
2024/03/07 03:28:18;;;;;;;;;31.67;26.00;;;;;8.72;94.36;101330.34;6203292;22;48633;-87
2024/03/07 03:30:44;;;;;;;;;29.00;29.00;;;;;8.87;93.95;101350.28;6203460;22;45132;-87
2024/03/07 03:33:11;;;;;;;;;29.33;26.67;;;;;8.76;94.09;101336.66;6177931;22;44725;-87
2024/03/07 03:35:37;;;;;;;;;32.67;29.67;;;;;8.76;93.77;101342.84;6230459;22;45021;-87
2024/03/07 03:38:03;;;;;;;;;26.33;26.33;;;;;8.66;93.47;101321.31;6201680;22;46978;-86
2024/03/07 03:40:28;;;;;;;;;28.67;27.33;;;;;8.64;93.86;101315.06;6202117;22;45335;-86
2024/03/07 03:42:54;;;;;;;;;36.00;33.00;;;;;8.80;94.02;101336.78;6229850;22;44914;-86
2024/03/07 03:45:20;;;;;;;;;27.33;24.67;;;;;8.68;94.08;101316.97;6229490;22;44891;-86
2024/03/07 03:47:47;;;;;;;;;36.00;30.00;;;;;8.79;93.60;101320.84;6201770;22;47209;-87
2024/03/07 03:50:13;;;;;;;;;18.00;18.00;;;;;8.69;93.34;101305.53;6202831;22;44657;-86
2024/03/07 03:52:40;;;;;;;;;34.00;30.33;;;;;8.82;94.06;101343.03;6228700;22;44957;-87
2024/03/07 03:55:06;;;;;;;;;27.00;26.33;;;;;8.87;93.92;101356.47;6201633;22;45000;-87
2024/03/07 03:57:33;;;;;;;;;25.67;23.33;;;;;8.71;93.72;101332.97;6169691;23;46881;-87
2024/03/07 04:03:26;;;;;;;;;32.33;28.00;;;;;8.76;93.94;101352.56;6200150;23;44788;-86
2024/03/07 04:05:52;;;;;;;;;34.33;29.00;;;;;8.64;94.30;101336.28;6173347;23;45214;-86
2024/03/07 04:08:20;;;;;;;;;31.67;31.33;;;;;8.75;94.25;101350.78;6172439;23;47011;-86
2024/03/07 04:10:45;;;;;;;;;31.00;26.33;;;;;8.60;94.23;101333.53;6173613;23;45361;-88
2024/03/07 04:13:11;;;;;;;;;33.33;29.33;;;;;8.60;93.98;101336.19;6170663;23;45264;-86
2024/03/07 04:15:36;;;;;;;;;30.67;29.67;;;;;8.42;94.42;101311.72;6199801;23;45254;-86
2024/03/07 04:18:01;;;;;;;;;30.33;28.33;;;;;8.32;94.14;101301.66;6197225;23;45206;-87
2024/03/07 04:20:27;;;;;;;;;35.00;28.67;;;;;8.54;94.26;101335.09;6171583;23;44948;-87
2024/03/07 04:22:52;;;;;;;;;32.33;28.67;;;;;8.42;94.23;101317.03;6199236;22;45619;-86
2024/03/07 04:25:18;;;;;;;;;28.00;27.67;;;;;8.49;94.30;101337.59;6172422;23;44927;-87
2024/03/07 04:27:43;;;;;;;;;30.67;28.00;;;;;8.53;94.62;101349.19;6172645;23;47359;-87
2024/03/07 04:30:09;;;;;;;;;28.33;26.33;;;;;8.29;94.43;101301.56;6170858;23;44884;-87
2024/03/07 04:32:37;;;;;;;;;30.33;28.67;;;;;8.44;94.68;101325.94;6172854;23;44821;-87
2024/03/07 04:35:07;;;;;;;;;28.33;25.00;;;;;8.21;94.58;101303.97;6172786;23;44877;-87
2024/03/07 04:37:36;;;;;;;;;27.67;26.67;;;;;8.31;94.85;101323.72;6170549;23;47170;-87
2024/03/07 04:40:04;;;;;;;;;30.33;28.00;;;;;8.18;94.74;101299.47;6171338;23;45385;-87
2024/03/07 04:42:30;;;;;;;;;37.67;34.67;;;;;8.35;95.04;101328.25;6172553;23;44791;-87
2024/03/07 04:44:56;;;;;;;;;33.67;33.67;;;;;8.16;94.78;101297.59;6171996;23;44964;-87
2024/03/07 04:47:21;;;;;;;;;32.00;26.33;;;;;8.09;95.08;101285.91;6172022;23;47150;-86
2024/03/07 04:49:46;;;;;;;;;29.00;25.67;;;;;8.39;95.20;101332.81;6198213;22;44896;-87
2024/03/07 04:52:12;;;;;;;;;33.33;25.33;;;;;8.24;95.23;101303.16;6200208;23;44893;-86
2024/03/07 04:54:37;;;;;;;;;35.67;32.67;;;;;8.31;95.45;101321.06;6198993;22;44768;-86
2024/03/07 04:57:03;;;;;;;;;28.67;28.67;;;;;8.30;95.33;101303.34;6185064;22;47052;-87
2024/03/07 04:59:29;;;;;;;;;27.33;25.00;;;;;8.43;95.56;101332.09;6171412;23;45669;-87
2024/03/07 05:01:54;;;;;;;;;30.67;28.67;;;;;8.23;95.17;101296.06;6172220;22;45313;-87
2024/03/07 05:04:20;;;;;;;;;20.33;20.33;;;;;8.28;95.77;101298.03;6172068;22;45408;-86
2024/03/07 05:06:48;;;;;;;;;29.00;29.00;;;;;8.47;95.50;101331.34;6170655;23;46864;-86
2024/03/07 05:09:22;;;;;;;;;32.00;27.67;;;;;8.37;95.63;101321.25;6173266;23;44903;-87
2024/03/07 05:11:51;;;;;;;;;31.67;29.33;;;;;8.34;95.72;101306.16;6172732;23;44889;-87
2024/03/07 05:14:17;;;;;;;;;21.00;21.00;;;;;8.32;95.67;101293.69;6173082;23;44833;-86
2024/03/07 05:16:43;;;;;;;;;28.33;24.33;;;;;8.53;96.43;101336.84;6199477;22;45598;-87
2024/03/07 05:19:09;;;;;;;;;33.00;31.33;;;;;8.51;95.81;101325.28;6172181;23;45498;-87
2024/03/07 05:21:41;;;;;;;;;36.67;35.67;;;;;8.60;95.67;101320.28;6173675;23;44803;-87
2024/03/07 05:24:07;;;;;;;;;25.33;22.00;;;;;8.33;96.21;101299.06;6200880;23;44707;-87
2024/03/07 05:26:37;;;;;;;;;24.00;21.33;;;;;8.50;96.23;101327.88;6173270;22;47518;-87
2024/03/07 05:29:09;;;;;;;;;29.00;24.33;;;;;8.37;95.92;101282.41;6173639;23;44990;-86
2024/03/07 05:31:44;;;;;;;;;24.67;21.00;;;;;8.45;95.74;101309.19;6200387;23;44860;-87
2024/03/07 05:34:09;;;;;;;;;20.00;17.67;;;;;8.20;95.18;101289.81;6171953;23;44932;-87
2024/03/07 05:36:35;;;;;;;;;20.00;17.33;;;;;8.20;95.69;101294.19;6200128;22;45276;-87
2024/03/07 05:39:09;;;;;;;;;17.33;16.00;;;;;8.38;95.88;101317.75;6172335;23;44733;-87
2024/03/07 05:41:35;;;;;;;;;16.33;15.33;;;;;8.20;95.74;101300.41;6149301;23;44834;-87
2024/03/07 05:44:00;;;;;;;;;24.33;21.67;;;;;8.37;96.25;101318.63;6200477;23;44867;-86
2024/03/07 05:46:26;;;;;;;;;21.00;19.33;;;;;8.40;96.15;101327.56;6199852;22;45420;-86
2024/03/07 05:48:55;;;;;;;;;29.67;26.67;;;;;8.22;96.48;101284.59;6171581;23;45444;-86
2024/03/07 05:51:22;;;;;;;;;24.00;21.00;;;;;8.45;96.12;101324.19;6199039;22;45182;-86
2024/03/07 05:53:47;;;;;;;;;22.67;21.00;;;;;8.29;95.58;101301.56;6171984;23;44873;-87
2024/03/07 05:56:14;;;;;;;;;19.00;19.00;;;;;8.43;95.67;101326.78;6172503;23;46972;-87
2024/03/07 05:58:39;;;;;;;;;23.67;23.33;;;;;8.32;96.04;101301.66;6173048;23;44917;-87
2024/03/07 06:01:05;;;;;;;;;25.33;24.33;;;;;8.14;95.29;101278.09;6171114;23;45469;-87
2024/03/07 06:03:30;;;;;;;;;32.33;28.00;;;;;8.28;94.91;101302.41;6200441;23;44859;-87
2024/03/07 06:05:56;;;;;;;;;33.33;27.33;;;;;8.20;94.75;101308.38;6174478;23;47212;-87
2024/03/07 06:08:21;;;;;;;;;35.67;30.00;;;;;8.31;94.69;101326.38;6174464;22;44915;-87
2024/03/07 06:10:47;;;;;;;;;26.33;25.67;;;;;8.27;94.88;101311.22;6175763;23;44842;-87
2024/03/07 06:13:15;;;;;;;;;26.33;24.33;;;;;8.01;94.73;101263.56;6199856;22;45330;-87
2024/03/07 06:15:44;;;;;;;;;26.00;21.33;;;;;8.32;94.25;101302.56;6174780;23;47378;-87
2024/03/07 06:18:10;;;;;;;;;29.33;27.67;;;;;8.34;94.51;101316.78;6202267;22;44890;-87
2024/03/07 06:20:37;;;;;;;;;29.33;26.00;;;;;8.28;94.41;101313.94;6175787;23;44875;-87
2024/03/07 06:23:05;;;;;;;;;28.33;27.67;;;;;8.25;94.45;101305.84;6175596;23;44891;-86
2024/03/07 06:25:37;;;;;;;;;21.50;19.00;;;;;8.18;94.41;101283.56;6172913;23;46055;-86
2024/03/07 06:28:10;;;;;;;;;31.67;29.67;;;;;8.13;94.35;101274.56;6173766;23;45631;-86
2024/03/07 06:30:41;;;;;;;;;24.00;23.67;;;;;8.04;94.69;101260.13;6200868;22;44973;-86
2024/03/07 06:33:07;;;;;;;;;28.33;28.33;;;;;8.08;94.35;101264.66;6201263;23;45195;-86
2024/03/07 06:35:36;;;;;;;;;29.00;25.00;;;;;8.32;94.46;101304.31;6174040;23;47167;-86
2024/03/07 06:38:06;;;;;;;;;30.33;28.67;;;;;8.09;94.29;101261.19;6174557;23;45143;-86
2024/03/07 06:40:32;;;;;;;;;25.00;24.67;;;;;8.27;94.49;101295.31;6202015;23;44697;-87
2024/03/07 06:42:59;;;;;;;;;27.67;25.33;;;;;8.45;94.52;101303.88;6200712;23;45213;-86
2024/03/07 06:45:24;;;;;;;;;24.00;23.33;;;;;8.19;94.15;101258.88;6200078;23;45102;-86
2024/03/07 06:47:52;;;;;;;;;29.67;28.33;;;;;8.38;94.20;101276.25;6175607;23;44848;-86
2024/03/07 06:51:08;;;;;;;;;26.67;22.00;;;;;8.70;93.83;101299.34;6177427;23;44871;-86
2024/03/07 06:53:33;;;;;;;;;32.00;27.00;;;;;8.27;93.76;101258.22;6201600;23;44859;-87
2024/03/07 06:56:02;;;;;;;;;28.00;24.33;;;;;8.56;93.81;101291.88;6201750;22;46701;-86
2024/03/07 06:58:28;;;;;;;;;31.67;29.33;;;;;8.32;93.85;101251.28;6181567;22;44880;-86
2024/03/07 07:00:54;;;;;;;;;26.00;25.67;;;;;8.40;93.57;101263.03;6206712;22;44816;-86
2024/03/07 07:03:22;;;;;;;;;30.33;29.00;;;;;8.69;93.19;101282.53;6207582;22;45301;-86
2024/03/07 07:05:54;;;;;;;;;31.00;29.33;;;;;8.71;93.48;101299.41;6233847;22;46290;-86
2024/03/07 07:08:29;;;;;;;;;35.33;35.33;;;;;8.89;92.76;101293.75;6208696;22;44967;-86
2024/03/07 07:11:05;;;;;;;;;32.67;30.00;;;;;8.69;92.60;101276.34;6216010;22;45229;-86
2024/03/07 07:14:20;;;;;;;;;33.33;30.33;;;;;8.84;92.55;101266.19;6231857;22;45067;-86
2024/03/07 07:17:13;;;;;;;;;37.33;33.00;;;;;9.00;92.60;101278.13;6192013;22;45200;-86
2024/03/07 07:19:42;;;;;;;;;31.67;28.00;;;;;8.88;92.20;101265.41;6175254;23;45403;-85
2024/03/07 07:22:12;;;;;;;;;38.00;32.33;;;;;8.94;92.45;101278.84;6198959;22;45267;-85
2024/03/07 07:24:38;;;;;;;;;32.33;30.67;;;;;8.94;92.06;101267.34;6150794;23;44839;-86
